createdAt,value
2023-05-02T00:02:05.684Z,99238.69
2023-05-02T00:04:32.569Z,99236.47
2023-05-02T00:06:59.523Z,99237.56
2023-05-02T00:09:26.276Z,99239.41
2023-05-02T00:11:52.981Z,99236.00
2023-05-02T00:14:19.635Z,99239.66
2023-05-02T00:16:46.529Z,99239.97
2023-05-02T00:19:13.731Z,99251.97
2023-05-02T00:21:40.387Z,99244.75
2023-05-02T00:24:07.060Z,99244.66
2023-05-02T00:26:33.740Z,99243.41
2023-05-02T00:29:01.310Z,99247.41
2023-05-02T00:31:28.113Z,99247.41
2023-05-02T00:33:54.873Z,99243.88
2023-05-02T00:36:21.537Z,99246.56
2023-05-02T00:38:48.371Z,99241.44
2023-05-02T00:41:17.121Z,99246.47
2023-05-02T00:43:43.799Z,99245.19
2023-05-02T00:46:12.846Z,99255.56
2023-05-02T00:48:39.758Z,99255.47
2023-05-02T00:51:08.667Z,99253.63
2023-05-02T00:53:36.110Z,99253.66
2023-05-02T00:56:03.001Z,99254.81
2023-05-02T00:58:30.708Z,99251.53
2023-05-02T01:01:00.421Z,99260.78
2023-05-02T01:03:45.350Z,99263.53
2023-05-02T01:06:19.551Z,99262.75
2023-05-02T01:08:54.285Z,99270.53
2023-05-02T01:11:30.671Z,99267.28
2023-05-02T01:13:59.165Z,99271.75
2023-05-02T01:16:26.209Z,99270.59
2023-05-02T01:18:52.973Z,99273.72
2023-05-02T01:21:19.843Z,99270.16
2023-05-02T01:24:16.856Z,99264.84
2023-05-02T01:26:55.632Z,99260.56
2023-05-02T01:29:23.319Z,99259.16
2023-05-02T01:31:51.553Z,99262.16
2023-05-02T01:34:20.362Z,99259.97
2023-05-02T01:36:49.244Z,99266.16
2023-05-02T01:39:24.500Z,99270.09
2023-05-02T01:41:52.446Z,99266.25
2023-05-02T01:44:20.777Z,99275.47
2023-05-02T01:46:48.264Z,99277.59
2023-05-02T01:49:15.740Z,99284.47
2023-05-02T01:51:48.232Z,99277.38
2023-05-02T01:54:17.083Z,99281.22
2023-05-02T01:56:46.633Z,99281.44
2023-05-02T01:59:15.496Z,99283.09
2023-05-02T02:01:43.700Z,99282.19
2023-05-02T02:04:13.039Z,99280.06
2023-05-02T02:06:42.511Z,99281.47
2023-05-02T02:09:09.215Z,99283.69
2023-05-02T02:11:39.763Z,99284.50
2023-05-02T02:14:07.951Z,99286.97
2023-05-02T02:16:37.705Z,99279.13
2023-05-02T02:19:07.708Z,99283.69
2023-05-02T02:21:36.261Z,99291.75
2023-05-02T02:24:04.468Z,99281.59
2023-05-02T02:26:31.224Z,99286.97
2023-05-02T02:28:58.070Z,99279.38
2023-05-02T02:31:25.913Z,99278.44
2023-05-02T02:33:52.788Z,99287.91
2023-05-02T02:36:25.312Z,99284.28
2023-05-02T02:39:01.273Z,99283.81
2023-05-02T02:41:33.339Z,99285.31
2023-05-02T02:44:26.087Z,99296.16
2023-05-02T02:47:02.813Z,99296.88
2023-05-02T02:49:42.993Z,99289.31
2023-05-02T02:52:28.649Z,99285.34
2023-05-02T02:55:00.806Z,99291.75
2023-05-02T02:57:39.754Z,99297.81
2023-05-02T03:00:16.502Z,99291.41
2023-05-02T03:02:43.947Z,99296.88
2023-05-02T03:05:11.260Z,99294.19
2023-05-02T03:07:37.952Z,99300.84
2023-05-02T03:10:06.008Z,99305.03
2023-05-02T03:12:34.579Z,99305.25
2023-05-02T03:15:29.102Z,99314.00
2023-05-02T03:17:56.078Z,99312.81
2023-05-02T03:20:22.740Z,99308.38
2023-05-02T03:22:49.688Z,99323.41
2023-05-02T03:25:17.060Z,99322.13
2023-05-02T03:27:46.737Z,99318.50
2023-05-02T03:30:14.025Z,99320.97
2023-05-02T03:32:40.825Z,99324.38
2023-05-02T03:35:08.539Z,99318.19
2023-05-02T03:37:40.045Z,99314.69
2023-05-02T03:40:07.531Z,99321.31
2023-05-02T03:42:40.159Z,99324.72
2023-05-02T03:45:16.750Z,99329.72
2023-05-02T03:47:44.119Z,99331.94
2023-05-02T03:50:11.567Z,99338.47
2023-05-02T03:52:38.655Z,99338.25
2023-05-02T03:55:07.876Z,99343.97
2023-05-02T03:57:34.750Z,99350.03
2023-05-02T04:00:01.748Z,99350.75
2023-05-02T04:02:38.530Z,99354.81
2023-05-02T04:05:08.973Z,99365.13
2023-05-02T04:07:37.117Z,99364.75
2023-05-02T04:10:07.014Z,99371.28
2023-05-02T04:12:39.017Z,99366.06
2023-05-02T04:15:06.971Z,99364.78
2023-05-02T04:17:34.015Z,99370.66
2023-05-02T04:20:04.017Z,99373.78
2023-05-02T04:22:33.509Z,99379.16
2023-05-02T04:25:03.958Z,99382.53
2023-05-02T04:27:32.564Z,99395.38
2023-05-02T04:29:59.823Z,99388.72
2023-05-02T04:32:27.276Z,99393.84
2023-05-02T04:34:55.934Z,99394.06
2023-05-02T04:37:23.717Z,99399.91
2023-05-02T04:39:51.065Z,99403.84
2023-05-02T04:42:21.756Z,99399.25
2023-05-02T04:44:56.384Z,99401.81
2023-05-02T04:47:23.101Z,99404.38
2023-05-02T04:49:49.808Z,99407.00
2023-05-02T04:52:16.561Z,99410.41
2023-05-02T04:54:43.760Z,99407.41
2023-05-02T04:57:12.782Z,99410.16
2023-05-02T04:59:43.876Z,99411.00
2023-05-02T05:02:12.835Z,99414.03
2023-05-02T05:04:40.092Z,99415.66
2023-05-02T05:07:07.343Z,99421.47
2023-05-02T05:09:34.175Z,99409.66
2023-05-02T05:12:01.984Z,99417.06
2023-05-02T05:14:31.522Z,99425.59
2023-05-02T05:16:58.728Z,99415.72
2023-05-02T05:19:26.351Z,99421.00
2023-05-02T05:21:53.254Z,99418.41
2023-05-02T05:24:21.295Z,99422.44
2023-05-02T05:26:49.612Z,99427.19
2023-05-02T05:29:16.423Z,99433.00
2023-05-02T05:31:44.014Z,99419.88
2023-05-02T05:34:14.378Z,99429.72
2023-05-02T05:36:42.221Z,99436.78
2023-05-02T05:39:09.063Z,99431.16
2023-05-02T05:41:38.366Z,99432.81
2023-05-02T05:44:08.048Z,99438.78
2023-05-02T05:46:34.768Z,99434.19
2023-05-02T05:49:03.037Z,99432.53
2023-05-02T05:51:30.339Z,99430.13
2023-05-02T05:53:59.072Z,99431.16
2023-05-02T05:56:26.433Z,99424.13
2023-05-02T05:58:59.810Z,99426.59
2023-05-02T06:01:26.788Z,99437.72
2023-05-02T06:03:54.140Z,99443.38
2023-05-02T06:06:21.242Z,99445.25
2023-05-02T06:08:47.891Z,99441.41
2023-05-02T06:11:14.617Z,99436.78
2023-05-02T06:13:41.314Z,99450.09
2023-05-02T06:16:08.529Z,99444.19
2023-05-02T06:18:35.305Z,99450.84
2023-05-02T06:21:06.051Z,99455.22
2023-05-02T06:23:33.416Z,99456.06
2023-05-02T06:26:01.334Z,99456.59
2023-05-02T06:28:28.466Z,99461.13
2023-05-02T06:30:58.144Z,99461.56
2023-05-02T06:33:24.784Z,99458.56
2023-05-02T06:35:55.809Z,99466.25
2023-05-02T06:38:23.228Z,99463.28
2023-05-02T06:40:50.520Z,99467.75
2023-05-02T06:43:17.822Z,99476.75
2023-05-02T06:45:44.512Z,99468.75
2023-05-02T06:48:11.452Z,99469.28
2023-05-02T06:50:38.184Z,99469.69
2023-05-02T06:53:06.086Z,99477.41
2023-05-02T06:55:32.842Z,99475.94
2023-05-02T06:57:59.712Z,99465.56
2023-05-02T07:00:26.509Z,99474.31
2023-05-02T07:02:53.235Z,99479.44
2023-05-02T07:05:19.859Z,99468.66
2023-05-02T07:07:46.556Z,99479.75
2023-05-02T07:10:13.263Z,99485.22
2023-05-02T07:12:39.916Z,99489.69
2023-05-02T07:15:07.125Z,99486.25
2023-05-02T07:17:34.088Z,99492.88
2023-05-02T07:20:01.097Z,99500.84
2023-05-02T07:22:27.920Z,99492.63
2023-05-02T07:24:58.814Z,99496.41
2023-05-02T07:27:25.830Z,99502.47
2023-05-02T07:29:52.451Z,99505.91
2023-05-02T07:32:21.691Z,99516.47
2023-05-02T07:34:48.786Z,99515.25
2023-05-02T07:37:15.495Z,99507.25
2023-05-02T07:39:42.151Z,99509.56
2023-05-02T07:42:08.844Z,99510.13
2023-05-02T07:44:36.142Z,99520.34
2023-05-02T07:47:03.408Z,99517.16
2023-05-02T07:49:32.503Z,99520.66
2023-05-02T07:51:59.164Z,99505.34
2023-05-02T07:54:28.601Z,99513.06
2023-05-02T07:56:57.598Z,99520.28
2023-05-02T07:59:24.235Z,99523.84
2023-05-02T08:01:50.924Z,99525.19
2023-05-02T08:04:17.772Z,99521.97
2023-05-02T08:06:47.112Z,99518.94
2023-05-02T08:09:13.754Z,99524.81
2023-05-02T08:11:40.393Z,99525.84
2023-05-02T08:14:07.062Z,99537.81
2023-05-02T08:16:33.801Z,99530.69
2023-05-02T08:19:00.710Z,99530.47
2023-05-02T08:21:27.726Z,99532.47
2023-05-02T08:23:58.422Z,99533.06
2023-05-02T08:26:25.139Z,99531.47
2023-05-02T08:28:52.073Z,99531.44
2023-05-02T08:31:19.227Z,99536.34
2023-05-02T08:33:46.219Z,99527.00
2023-05-02T08:36:17.269Z,99528.16
2023-05-02T08:38:45.191Z,99523.06
2023-05-02T08:41:13.979Z,99531.53
2023-05-02T08:43:40.936Z,99531.13
2023-05-02T08:46:08.537Z,99531.09
2023-05-02T08:48:40.484Z,99535.94
2023-05-02T08:51:12.204Z,99535.25
2023-05-02T08:53:39.501Z,99541.84
2023-05-02T08:56:10.563Z,99534.41
2023-05-02T08:58:38.600Z,99539.84
2023-05-02T09:01:19.551Z,99546.69
2023-05-02T09:03:47.537Z,99531.53
2023-05-02T09:06:19.726Z,99535.72
2023-05-02T09:08:52.523Z,99543.63
2023-05-02T09:11:19.651Z,99543.84
2023-05-02T09:13:48.326Z,99546.00
2023-05-02T09:16:17.622Z,99543.69
2023-05-02T09:18:46.377Z,99553.81
2023-05-02T09:21:19.660Z,99550.63
2023-05-02T09:23:49.588Z,99557.06
2023-05-02T09:26:19.195Z,99546.09
2023-05-02T09:28:45.756Z,99558.53
2023-05-02T09:31:16.887Z,99565.19
2023-05-02T09:33:46.293Z,99564.72
2023-05-02T09:36:15.469Z,99572.81
2023-05-02T09:38:47.045Z,99565.63
2023-05-02T09:41:13.979Z,99560.13
2023-05-02T09:43:41.336Z,99565.91
2023-05-02T09:46:09.958Z,99569.06
2023-05-02T09:48:52.930Z,99570.50
2023-05-02T09:51:20.858Z,99572.47
2023-05-02T09:53:47.699Z,99575.69
2023-05-02T09:56:15.059Z,99578.28
2023-05-02T09:58:41.777Z,99574.47
2023-05-02T10:01:08.744Z,99577.66
2023-05-02T10:03:37.999Z,99587.13
2023-05-02T10:06:05.662Z,99587.50
2023-05-02T10:08:33.877Z,99587.28
2023-05-02T10:11:01.083Z,99582.63
2023-05-02T10:13:32.208Z,99584.38
2023-05-02T10:16:04.311Z,99597.94
2023-05-02T10:18:57.314Z,99591.16
2023-05-02T10:21:27.873Z,99599.56
2023-05-02T10:23:54.584Z,99603.09
2023-05-02T10:26:23.511Z,99584.78
2023-05-02T10:28:51.286Z,99597.59
2023-05-02T10:31:18.906Z,99592.53
2023-05-02T10:33:47.317Z,99582.75
2023-05-02T10:36:14.555Z,99587.06
2023-05-02T10:38:41.782Z,99592.25
2023-05-02T10:41:17.726Z,99600.66
2023-05-02T10:43:49.226Z,99609.06
2023-05-02T10:46:32.235Z,99597.69
2023-05-02T10:49:07.436Z,99598.19
2023-05-02T10:51:35.580Z,99596.19
2023-05-02T10:54:17.832Z,99586.81
2023-05-02T10:57:01.875Z,99600.03
2023-05-02T10:59:39.754Z,99599.19
2023-05-02T11:02:31.045Z,99606.84
2023-05-02T11:05:05.306Z,99594.94
2023-05-02T11:07:33.639Z,99595.34
2023-05-02T11:10:15.983Z,99590.94
2023-05-02T11:12:50.441Z,99593.69
2023-05-02T11:15:27.013Z,99597.09
2023-05-02T11:18:11.989Z,99602.44
2023-05-02T11:20:42.881Z,99606.06
2023-05-02T11:23:16.269Z,99604.00
2023-05-02T11:25:44.772Z,99601.22
2023-05-02T11:28:34.550Z,99604.22
2023-05-02T11:31:01.357Z,99596.75
2023-05-02T11:33:29.013Z,99603.19
2023-05-02T11:35:59.066Z,99588.19
2023-05-02T11:38:27.179Z,99589.03
2023-05-02T11:40:58.715Z,99587.97
2023-05-02T11:43:29.951Z,99583.69
2023-05-02T11:45:59.987Z,99592.41
2023-05-02T11:48:27.591Z,99590.03
2023-05-02T11:50:56.811Z,99587.44
2023-05-02T11:53:28.914Z,99591.69
2023-05-02T11:56:05.125Z,99596.41
2023-05-02T11:58:33.662Z,99592.91
2023-05-02T12:01:15.473Z,99594.75
2023-05-02T12:03:42.578Z,99582.97
2023-05-02T12:06:13.273Z,99585.72
2023-05-02T12:08:41.033Z,99586.88
2023-05-02T12:11:07.763Z,99586.09
2023-05-02T12:13:34.784Z,99578.38
2023-05-02T12:16:01.743Z,99582.25
2023-05-02T12:18:28.728Z,99582.19
2023-05-02T12:20:56.183Z,99582.22
2023-05-02T12:23:24.806Z,99576.94
2023-05-02T12:25:51.453Z,99582.59
2023-05-02T12:28:19.620Z,99585.38
2023-05-02T12:30:48.401Z,99590.66
2023-05-02T12:33:15.826Z,99589.28
2023-05-02T12:35:42.644Z,99589.19
2023-05-02T12:38:16.299Z,99600.84
2023-05-02T12:40:48.275Z,99591.56
2023-05-02T12:43:15.189Z,99590.13
2023-05-02T12:45:41.840Z,99604.53
2023-05-02T12:48:28.892Z,99601.56
2023-05-02T12:50:55.784Z,99604.97
2023-05-02T12:53:39.611Z,99608.25
2023-05-02T12:56:07.048Z,99603.94
2023-05-02T12:58:49.436Z,99609.06
2023-05-02T13:01:16.368Z,99611.63
2023-05-02T13:03:44.081Z,99616.69
2023-05-02T13:06:11.172Z,99608.34
2023-05-02T13:08:37.909Z,99613.25
2023-05-02T13:11:04.811Z,99618.97
2023-05-02T13:13:32.668Z,99613.88
2023-05-02T13:15:59.506Z,99620.81
2023-05-02T13:18:28.167Z,99610.66
2023-05-02T13:20:55.204Z,99622.09
2023-05-02T13:23:22.047Z,99613.47
2023-05-02T13:25:48.723Z,99624.97
2023-05-02T13:28:15.420Z,99622.31
2023-05-02T13:30:42.221Z,99618.56
2023-05-02T13:33:09.180Z,99629.69
2023-05-02T13:35:36.020Z,99629.13
2023-05-02T13:38:03.263Z,99641.63
2023-05-02T13:40:30.039Z,99636.22
2023-05-02T13:42:56.735Z,99644.38
2023-05-02T13:45:23.404Z,99641.88
2023-05-02T13:47:50.100Z,99644.06
2023-05-02T13:50:16.889Z,99639.44
2023-05-02T13:52:43.611Z,99636.44
2023-05-02T13:55:10.285Z,99634.53
2023-05-02T13:57:36.947Z,99638.84
2023-05-02T14:00:04.795Z,99641.34
2023-05-02T14:02:31.982Z,99639.16
2023-05-02T14:04:58.850Z,99640.75
2023-05-02T14:07:25.530Z,99638.06
2023-05-02T14:09:52.159Z,99645.38
2023-05-02T14:12:18.787Z,99648.69
2023-05-02T14:14:45.536Z,99649.50
2023-05-02T14:17:12.259Z,99643.25
2023-05-02T14:19:39.003Z,99647.34
2023-05-02T14:22:05.676Z,99649.78
2023-05-02T14:24:32.378Z,99641.63
2023-05-02T14:26:59.141Z,99641.88
2023-05-02T14:29:25.832Z,99635.38
2023-05-02T14:31:52.518Z,99643.25
2023-05-02T14:34:19.275Z,99640.56
2023-05-02T14:36:45.946Z,99633.75
2023-05-02T14:39:12.789Z,99632.41
2023-05-02T14:41:39.570Z,99631.31
2023-05-02T14:44:06.316Z,99636.75
2023-05-02T14:46:33.018Z,99633.47
2023-05-02T14:48:59.876Z,99635.94
2023-05-02T14:51:26.513Z,99626.47
2023-05-02T14:53:54.376Z,99635.91
2023-05-02T14:56:21.688Z,99638.06
2023-05-02T14:58:48.363Z,99634.00
2023-05-02T15:01:16.529Z,99631.56
2023-05-02T15:04:03.388Z,99635.09
2023-05-02T15:06:31.712Z,99637.53
2023-05-02T15:08:58.460Z,99634.22
2023-05-02T15:11:25.633Z,99629.38
2023-05-02T15:13:52.320Z,99632.63
2023-05-02T15:16:19.068Z,99628.81
2023-05-02T15:18:45.860Z,99628.88
2023-05-02T15:21:12.700Z,99620.69
2023-05-02T15:23:39.489Z,99635.34
2023-05-02T15:26:06.515Z,99627.22
2023-05-02T15:28:33.207Z,99625.31
2023-05-02T15:30:59.834Z,99628.31
2023-05-02T15:33:26.468Z,99627.19
2023-05-02T15:35:57.754Z,99637.25
2023-05-02T15:38:24.981Z,99638.84
2023-05-02T15:40:56.315Z,99634.25
2023-05-02T15:43:23.536Z,99633.66
2023-05-02T15:45:57.932Z,99629.81
2023-05-02T15:48:28.092Z,99631.69
2023-05-02T15:50:54.906Z,99624.09
2023-05-02T15:53:24.503Z,99634.22
2023-05-02T15:55:52.200Z,99626.63
2023-05-02T15:58:19.208Z,99628.56
2023-05-02T16:00:46.970Z,99625.28
2023-05-02T16:03:13.712Z,99622.53
2023-05-02T16:05:40.452Z,99623.56
2023-05-02T16:08:07.160Z,99634.34
2023-05-02T16:10:36.402Z,99633.47
2023-05-02T16:13:03.312Z,99636.69
2023-05-02T16:15:30.533Z,99632.59
2023-05-02T16:17:57.492Z,99637.69
2023-05-02T16:20:24.340Z,99641.84
2023-05-02T16:22:51.429Z,99645.25
2023-05-02T16:25:18.955Z,99649.41
2023-05-02T16:27:45.716Z,99653.44
2023-05-02T16:30:13.085Z,99651.22
2023-05-02T16:32:40.673Z,99659.31
2023-05-02T16:35:10.763Z,99664.25
2023-05-02T16:37:37.644Z,99665.81
2023-05-02T16:40:05.862Z,99656.09
2023-05-02T16:42:33.023Z,99661.56
2023-05-02T16:44:59.994Z,99654.97
2023-05-02T16:47:27.999Z,99661.19
2023-05-02T16:49:55.601Z,99675.84
2023-05-02T16:52:22.534Z,99678.19
2023-05-02T16:54:49.697Z,99674.41
2023-05-02T16:57:21.232Z,99672.91
2023-05-02T16:59:49.604Z,99678.66
2023-05-02T17:02:16.822Z,99687.91
2023-05-02T17:04:43.911Z,99689.22
2023-05-02T17:07:13.392Z,99697.47
2023-05-02T17:09:41.467Z,99698.88
2023-05-02T17:12:10.437Z,99691.78
2023-05-02T17:14:41.395Z,99696.28
2023-05-02T17:17:08.695Z,99705.59
2023-05-02T17:19:36.015Z,99707.00
2023-05-02T17:22:04.937Z,99719.41
2023-05-02T17:24:32.091Z,99728.72
2023-05-02T17:26:58.919Z,99727.91
2023-05-02T17:29:25.820Z,99737.19
2023-05-02T17:31:52.598Z,99729.59
2023-05-02T17:34:19.277Z,99740.56
2023-05-02T17:36:46.448Z,99728.09
2023-05-02T17:39:13.525Z,99728.66
2023-05-02T17:41:40.278Z,99729.09
2023-05-02T17:44:07.028Z,99726.41
2023-05-02T17:46:33.738Z,99734.25
2023-05-02T17:49:01.134Z,99733.75
2023-05-02T17:51:28.239Z,99734.03
2023-05-02T17:53:55.038Z,99738.50
2023-05-02T17:56:21.809Z,99734.41
2023-05-02T17:58:48.620Z,99738.66
2023-05-02T18:01:15.733Z,99736.44
2023-05-02T18:03:43.560Z,99735.50
2023-05-02T18:06:15.409Z,99734.25
2023-05-02T18:08:42.170Z,99735.06
2023-05-02T18:11:16.757Z,99738.34
2023-05-02T18:13:44.277Z,99737.88
2023-05-02T18:16:12.481Z,99750.66
2023-05-02T18:18:39.699Z,99750.75
2023-05-02T18:21:06.400Z,99762.91
2023-05-02T18:23:33.750Z,99760.91
2023-05-02T18:26:00.684Z,99766.56
2023-05-02T18:28:27.543Z,99762.69
2023-05-02T18:30:54.194Z,99772.38
2023-05-02T18:33:20.992Z,99771.09
2023-05-02T18:35:48.458Z,99785.38
2023-05-02T18:38:16.006Z,99787.50
2023-05-02T18:40:42.839Z,99788.66
2023-05-02T18:43:09.556Z,99794.63
2023-05-02T18:45:36.295Z,99800.47
2023-05-02T18:48:03.492Z,99799.88
2023-05-02T18:50:30.327Z,99803.50
2023-05-02T18:52:56.973Z,99804.06
2023-05-02T18:55:25.229Z,99803.97
2023-05-02T18:57:52.251Z,99805.72
2023-05-02T19:00:20.532Z,99812.50
2023-05-02T19:02:47.832Z,99810.03
2023-05-02T19:05:15.167Z,99808.97
2023-05-02T19:07:42.442Z,99819.19
2023-05-02T19:10:11.184Z,99817.25
2023-05-02T19:12:38.381Z,99824.63
2023-05-02T19:15:06.777Z,99828.47
2023-05-02T19:17:33.643Z,99833.38
2023-05-02T19:20:00.444Z,99825.53
2023-05-02T19:22:27.760Z,99834.78
2023-05-02T19:24:54.700Z,99838.97
2023-05-02T19:27:21.348Z,99843.25
2023-05-02T19:29:47.939Z,99848.53
2023-05-02T19:32:14.991Z,99838.56
2023-05-02T19:34:42.137Z,99842.34
2023-05-02T19:37:10.257Z,99844.78
2023-05-02T19:39:36.865Z,99839.50
2023-05-02T19:42:04.239Z,99850.84
2023-05-02T19:44:30.887Z,99849.22
2023-05-02T19:46:57.568Z,99850.16
2023-05-02T19:49:24.267Z,99863.38
2023-05-02T19:51:50.932Z,99858.56
2023-05-02T19:54:17.562Z,99859.84
2023-05-02T19:56:44.398Z,99855.88
2023-05-02T19:59:11.073Z,99867.56
2023-05-02T20:01:37.839Z,99857.28
2023-05-02T20:04:04.553Z,99863.47
2023-05-02T20:06:32.344Z,99857.50
2023-05-02T20:08:59.186Z,99865.56
2023-05-02T20:11:26.354Z,99861.47
2023-05-02T20:13:54.069Z,99862.53
2023-05-02T20:16:21.172Z,99868.84
2023-05-02T20:18:47.994Z,99868.63
2023-05-02T20:21:15.068Z,99868.41
2023-05-02T20:23:43.575Z,99862.19
2023-05-02T20:26:10.672Z,99860.91
2023-05-02T20:28:37.889Z,99858.47
2023-05-02T20:31:04.760Z,99866.06
2023-05-02T20:33:43.819Z,99853.31
2023-05-02T20:36:12.901Z,99867.44
2023-05-02T20:38:42.561Z,99868.81
2023-05-02T20:41:12.483Z,99864.63
2023-05-02T20:43:45.006Z,99868.47
2023-05-02T20:46:13.536Z,99869.53
2023-05-02T20:48:40.372Z,99877.00
2023-05-02T20:51:07.136Z,99880.97
2023-05-02T20:53:33.874Z,99877.22
2023-05-02T20:56:00.531Z,99878.19
2023-05-02T20:58:27.189Z,99878.28
2023-05-02T21:00:54.211Z,99874.66
2023-05-02T21:03:21.463Z,99879.56
2023-05-02T21:05:55.653Z,99883.28
2023-05-02T21:08:23.006Z,99889.63
2023-05-02T21:10:49.690Z,99881.56
2023-05-02T21:13:16.326Z,99888.53
2023-05-02T21:15:43.005Z,99877.84
2023-05-02T21:18:09.685Z,99881.50
2023-05-02T21:20:38.189Z,99879.22
2023-05-02T21:23:05.057Z,99884.19
2023-05-02T21:25:31.726Z,99874.22
2023-05-02T21:27:58.361Z,99881.25
2023-05-02T21:30:25.093Z,99875.50
2023-05-02T21:32:51.766Z,99888.25
2023-05-02T21:35:18.570Z,99890.09
2023-05-02T21:37:45.316Z,99887.69
2023-05-02T21:40:12.527Z,99890.63
2023-05-02T21:42:39.263Z,99891.22
2023-05-02T21:45:06.846Z,99888.38
2023-05-02T21:47:33.575Z,99888.47
2023-05-02T21:50:00.445Z,99884.59
2023-05-02T21:52:27.426Z,99888.63
2023-05-02T21:54:54.214Z,99887.97
2023-05-02T21:57:21.237Z,99886.31
2023-05-02T21:59:48.257Z,99900.47
2023-05-02T22:02:15.050Z,99899.06
2023-05-02T22:04:41.695Z,99899.28
2023-05-02T22:07:08.360Z,99897.63
2023-05-02T22:09:35.102Z,99896.59
2023-05-02T22:12:02.894Z,99906.63
2023-05-02T22:14:37.692Z,99901.41
2023-05-02T22:17:11.650Z,99903.84
2023-05-02T22:19:39.377Z,99903.78
2023-05-02T22:22:06.787Z,99904.16
2023-05-02T22:24:33.566Z,99907.88
2023-05-02T22:27:00.325Z,99899.81
2023-05-02T22:29:26.960Z,99898.09
2023-05-02T22:31:53.626Z,99894.38
2023-05-02T22:34:20.362Z,99896.56
2023-05-02T22:36:47.041Z,99907.06
2023-05-02T22:39:15.756Z,99902.59
2023-05-02T22:41:43.194Z,99896.56
2023-05-02T22:44:11.110Z,99891.84
2023-05-02T22:46:38.681Z,99890.19
2023-05-02T22:49:07.685Z,99887.22
2023-05-02T22:51:34.372Z,99888.41
2023-05-02T22:54:03.135Z,99885.56
2023-05-02T22:56:29.769Z,99884.16
2023-05-02T22:58:56.523Z,99888.84
2023-05-02T23:01:23.246Z,99877.50
2023-05-02T23:03:50.100Z,99878.31
2023-05-02T23:06:17.147Z,99872.75
2023-05-02T23:08:43.831Z,99868.94
2023-05-02T23:11:10.513Z,99884.31
2023-05-02T23:13:37.288Z,99880.66
2023-05-02T23:16:04.453Z,99889.75
2023-05-02T23:18:31.206Z,99881.91
2023-05-02T23:20:57.935Z,99891.84
2023-05-02T23:23:24.637Z,99884.53
2023-05-02T23:25:52.787Z,99889.28
2023-05-02T23:28:19.453Z,99889.75
2023-05-02T23:30:46.242Z,99883.78
2023-05-02T23:33:13.004Z,99882.56
2023-05-02T23:35:39.887Z,99881.63
2023-05-02T23:38:08.074Z,99879.66
2023-05-02T23:40:34.985Z,99882.00
2023-05-02T23:43:01.657Z,99875.47
2023-05-02T23:45:28.289Z,99874.59
2023-05-02T23:47:54.987Z,99871.91
2023-05-02T23:50:21.707Z,99879.34
2023-05-02T23:52:48.344Z,99880.69
2023-05-02T23:55:15.172Z,99870.31
2023-05-02T23:57:41.877Z,99875.09
